sensor_id;sensor_type;location;lat;lon;timestamp;P1;durP1;ratioP1;P2;durP2;ratioP2
69771;SDS011;57046;45.988;18.664;2022-08-25T00:00:49;3.40;;;2.13;;
69771;SDS011;57046;45.988;18.664;2022-08-25T00:03:15;3.58;;;1.77;;
69771;SDS011;57046;45.988;18.664;2022-08-25T00:05:40;3.78;;;2.30;;
69771;SDS011;57046;45.988;18.664;2022-08-25T00:08:07;2.23;;;1.77;;
69771;SDS011;57046;45.988;18.664;2022-08-25T00:10:33;4.13;;;2.47;;
69771;SDS011;57046;45.988;18.664;2022-08-25T00:16:37;3.65;;;2.33;;
69771;SDS011;57046;45.988;18.664;2022-08-25T00:19:05;3.93;;;2.00;;
69771;SDS011;57046;45.988;18.664;2022-08-25T00:21:34;3.17;;;1.92;;
69771;SDS011;57046;45.988;18.664;2022-08-25T00:24:00;4.00;;;1.83;;
69771;SDS011;57046;45.988;18.664;2022-08-25T00:26:25;4.73;;;2.03;;
69771;SDS011;57046;45.988;18.664;2022-08-25T00:28:51;4.30;;;2.33;;
69771;SDS011;57046;45.988;18.664;2022-08-25T00:31:17;4.53;;;2.57;;
69771;SDS011;57046;45.988;18.664;2022-08-25T00:33:45;3.70;;;2.25;;
69771;SDS011;57046;45.988;18.664;2022-08-25T00:36:11;3.93;;;2.30;;
69771;SDS011;57046;45.988;18.664;2022-08-25T00:38:37;3.72;;;2.10;;
69771;SDS011;57046;45.988;18.664;2022-08-25T00:41:04;4.88;;;2.40;;
69771;SDS011;57046;45.988;18.664;2022-08-25T00:43:52;3.77;;;2.13;;
69771;SDS011;57046;45.988;18.664;2022-08-25T00:46:20;5.30;;;2.30;;
69771;SDS011;57046;45.988;18.664;2022-08-25T00:48:48;3.42;;;2.22;;
69771;SDS011;57046;45.988;18.664;2022-08-25T00:51:23;3.17;;;2.30;;
69771;SDS011;57046;45.988;18.664;2022-08-25T00:54:14;3.45;;;1.83;;
69771;SDS011;57046;45.988;18.664;2022-08-25T00:56:46;4.70;;;2.30;;
69771;SDS011;57046;45.988;18.664;2022-08-25T00:59:12;3.30;;;2.03;;
69771;SDS011;57046;45.988;18.664;2022-08-25T01:01:38;2.92;;;1.67;;
69771;SDS011;57046;45.988;18.664;2022-08-25T01:04:04;2.97;;;2.00;;
69771;SDS011;57046;45.988;18.664;2022-08-25T01:06:29;3.87;;;1.97;;
69771;SDS011;57046;45.988;18.664;2022-08-25T01:09:00;3.50;;;2.22;;
69771;SDS011;57046;45.988;18.664;2022-08-25T01:11:25;3.37;;;2.13;;
69771;SDS011;57046;45.988;18.664;2022-08-25T01:13:51;4.97;;;2.47;;
69771;SDS011;57046;45.988;18.664;2022-08-25T01:16:19;5.00;;;2.70;;
69771;SDS011;57046;45.988;18.664;2022-08-25T01:18:46;4.97;;;2.72;;
69771;SDS011;57046;45.988;18.664;2022-08-25T01:21:11;4.85;;;2.35;;
69771;SDS011;57046;45.988;18.664;2022-08-25T01:23:37;3.13;;;2.17;;
69771;SDS011;57046;45.988;18.664;2022-08-25T01:26:04;3.95;;;2.53;;
69771;SDS011;57046;45.988;18.664;2022-08-25T01:28:31;4.40;;;2.17;;
69771;SDS011;57046;45.988;18.664;2022-08-25T01:30:56;4.70;;;2.35;;
69771;SDS011;57046;45.988;18.664;2022-08-25T01:33:22;3.50;;;2.27;;
69771;SDS011;57046;45.988;18.664;2022-08-25T01:35:47;5.27;;;2.53;;
69771;SDS011;57046;45.988;18.664;2022-08-25T01:38:13;4.18;;;2.28;;
69771;SDS011;57046;45.988;18.664;2022-08-25T01:40:39;4.30;;;2.13;;
69771;SDS011;57046;45.988;18.664;2022-08-25T01:45:34;3.63;;;1.90;;
69771;SDS011;57046;45.988;18.664;2022-08-25T01:48:00;4.57;;;2.13;;
69771;SDS011;57046;45.988;18.664;2022-08-25T01:50:26;3.70;;;2.20;;
69771;SDS011;57046;45.988;18.664;2022-08-25T01:52:57;4.83;;;2.57;;
69771;SDS011;57046;45.988;18.664;2022-08-25T01:55:36;3.65;;;2.35;;
69771;SDS011;57046;45.988;18.664;2022-08-25T01:58:02;3.08;;;2.17;;
69771;SDS011;57046;45.988;18.664;2022-08-25T02:00:27;5.20;;;2.30;;
69771;SDS011;57046;45.988;18.664;2022-08-25T02:02:53;4.33;;;2.30;;
69771;SDS011;57046;45.988;18.664;2022-08-25T02:05:18;4.75;;;2.20;;
69771;SDS011;57046;45.988;18.664;2022-08-25T02:07:43;5.00;;;2.20;;
69771;SDS011;57046;45.988;18.664;2022-08-25T02:10:09;4.37;;;2.43;;
69771;SDS011;57046;45.988;18.664;2022-08-25T02:12:36;3.25;;;1.92;;
69771;SDS011;57046;45.988;18.664;2022-08-25T02:15:05;3.90;;;2.07;;
69771;SDS011;57046;45.988;18.664;2022-08-25T02:17:33;4.57;;;2.20;;
69771;SDS011;57046;45.988;18.664;2022-08-25T02:19:59;4.32;;;2.30;;
69771;SDS011;57046;45.988;18.664;2022-08-25T02:22:24;4.53;;;2.17;;
69771;SDS011;57046;45.988;18.664;2022-08-25T02:24:50;3.07;;;1.97;;
69771;SDS011;57046;45.988;18.664;2022-08-25T02:27:15;4.47;;;2.47;;
69771;SDS011;57046;45.988;18.664;2022-08-25T02:29:40;4.50;;;2.30;;
69771;SDS011;57046;45.988;18.664;2022-08-25T02:32:06;3.80;;;2.20;;
69771;SDS011;57046;45.988;18.664;2022-08-25T02:34:32;5.53;;;2.22;;
69771;SDS011;57046;45.988;18.664;2022-08-25T02:36:57;4.60;;;2.60;;
69771;SDS011;57046;45.988;18.664;2022-08-25T02:39:23;3.87;;;2.13;;
69771;SDS011;57046;45.988;18.664;2022-08-25T02:41:48;4.68;;;2.13;;
69771;SDS011;57046;45.988;18.664;2022-08-25T02:44:14;5.10;;;2.17;;
69771;SDS011;57046;45.988;18.664;2022-08-25T02:46:39;4.87;;;2.47;;
69771;SDS011;57046;45.988;18.664;2022-08-25T02:49:05;5.33;;;2.27;;
69771;SDS011;57046;45.988;18.664;2022-08-25T02:51:32;3.97;;;2.45;;
69771;SDS011;57046;45.988;18.664;2022-08-25T02:53:58;5.93;;;2.30;;
69771;SDS011;57046;45.988;18.664;2022-08-25T02:56:25;4.53;;;2.25;;
69771;SDS011;57046;45.988;18.664;2022-08-25T02:58:50;4.60;;;2.43;;
69771;SDS011;57046;45.988;18.664;2022-08-25T03:01:16;3.63;;;1.83;;
69771;SDS011;57046;45.988;18.664;2022-08-25T03:03:42;4.38;;;2.20;;
69771;SDS011;57046;45.988;18.664;2022-08-25T03:06:10;4.30;;;1.83;;
69771;SDS011;57046;45.988;18.664;2022-08-25T03:08:37;9.57;;;2.20;;
69771;SDS011;57046;45.988;18.664;2022-08-25T03:11:03;4.00;;;2.13;;
69771;SDS011;57046;45.988;18.664;2022-08-25T03:13:30;4.35;;;2.22;;
69771;SDS011;57046;45.988;18.664;2022-08-25T03:15:55;4.22;;;2.20;;
69771;SDS011;57046;45.988;18.664;2022-08-25T03:18:21;5.67;;;2.50;;
69771;SDS011;57046;45.988;18.664;2022-08-25T03:20:58;4.83;;;2.23;;
69771;SDS011;57046;45.988;18.664;2022-08-25T03:23:23;5.03;;;2.53;;
69771;SDS011;57046;45.988;18.664;2022-08-25T03:25:49;4.83;;;2.40;;
69771;SDS011;57046;45.988;18.664;2022-08-25T03:28:14;5.05;;;2.40;;
69771;SDS011;57046;45.988;18.664;2022-08-25T03:30:41;4.00;;;2.10;;
69771;SDS011;57046;45.988;18.664;2022-08-25T03:33:07;3.92;;;2.20;;
69771;SDS011;57046;45.988;18.664;2022-08-25T03:35:33;6.77;;;2.20;;
69771;SDS011;57046;45.988;18.664;2022-08-25T03:37:58;4.10;;;2.33;;
69771;SDS011;57046;45.988;18.664;2022-08-25T03:40:24;6.33;;;3.03;;
69771;SDS011;57046;45.988;18.664;2022-08-25T03:42:50;5.63;;;2.70;;
69771;SDS011;57046;45.988;18.664;2022-08-25T03:45:16;7.13;;;2.40;;
69771;SDS011;57046;45.988;18.664;2022-08-25T03:47:45;5.18;;;2.28;;
69771;SDS011;57046;45.988;18.664;2022-08-25T03:50:13;5.97;;;2.30;;
69771;SDS011;57046;45.988;18.664;2022-08-25T03:52:40;4.13;;;2.20;;
69771;SDS011;57046;45.988;18.664;2022-08-25T03:55:07;6.17;;;2.70;;
69771;SDS011;57046;45.988;18.664;2022-08-25T03:57:42;5.90;;;2.40;;
69771;SDS011;57046;45.988;18.664;2022-08-25T04:00:08;8.20;;;2.70;;
69771;SDS011;57046;45.988;18.664;2022-08-25T04:02:34;5.83;;;2.60;;
69771;SDS011;57046;45.988;18.664;2022-08-25T04:04:59;6.70;;;2.35;;
69771;SDS011;57046;45.988;18.664;2022-08-25T04:07:25;4.50;;;2.47;;
69771;SDS011;57046;45.988;18.664;2022-08-25T04:09:52;5.20;;;2.30;;
69771;SDS011;57046;45.988;18.664;2022-08-25T04:12:18;4.63;;;2.67;;
69771;SDS011;57046;45.988;18.664;2022-08-25T04:14:43;6.07;;;2.30;;
69771;SDS011;57046;45.988;18.664;2022-08-25T04:17:08;6.40;;;2.37;;
69771;SDS011;57046;45.988;18.664;2022-08-25T04:19:34;6.67;;;2.70;;
69771;SDS011;57046;45.988;18.664;2022-08-25T04:22:15;4.85;;;2.40;;
69771;SDS011;57046;45.988;18.664;2022-08-25T04:24:50;5.55;;;2.38;;
69771;SDS011;57046;45.988;18.664;2022-08-25T04:27:15;5.10;;;2.43;;
69771;SDS011;57046;45.988;18.664;2022-08-25T04:29:40;5.80;;;2.60;;
69771;SDS011;57046;45.988;18.664;2022-08-25T04:32:06;6.57;;;2.93;;
69771;SDS011;57046;45.988;18.664;2022-08-25T04:34:50;7.15;;;3.05;;
69771;SDS011;57046;45.988;18.664;2022-08-25T04:37:15;6.35;;;2.78;;
69771;SDS011;57046;45.988;18.664;2022-08-25T04:39:41;6.97;;;2.60;;
69771;SDS011;57046;45.988;18.664;2022-08-25T04:42:06;5.00;;;2.30;;
69771;SDS011;57046;45.988;18.664;2022-08-25T04:44:32;6.68;;;2.55;;
69771;SDS011;57046;45.988;18.664;2022-08-25T04:47:00;6.20;;;2.67;;
69771;SDS011;57046;45.988;18.664;2022-08-25T04:49:25;6.50;;;3.05;;
69771;SDS011;57046;45.988;18.664;2022-08-25T04:51:51;6.57;;;3.00;;
69771;SDS011;57046;45.988;18.664;2022-08-25T04:54:16;6.35;;;3.22;;
69771;SDS011;57046;45.988;18.664;2022-08-25T04:56:42;5.50;;;2.90;;
69771;SDS011;57046;45.988;18.664;2022-08-25T04:59:09;5.27;;;2.63;;
69771;SDS011;57046;45.988;18.664;2022-08-25T05:01:36;6.47;;;2.83;;
69771;SDS011;57046;45.988;18.664;2022-08-25T05:04:03;6.60;;;2.70;;
69771;SDS011;57046;45.988;18.664;2022-08-25T05:06:30;5.53;;;2.45;;
69771;SDS011;57046;45.988;18.664;2022-08-25T05:08:59;11.40;;;2.88;;
69771;SDS011;57046;45.988;18.664;2022-08-25T05:11:25;5.97;;;2.43;;
69771;SDS011;57046;45.988;18.664;2022-08-25T05:13:51;9.23;;;3.40;;
69771;SDS011;57046;45.988;18.664;2022-08-25T05:16:19;6.15;;;2.95;;
69771;SDS011;57046;45.988;18.664;2022-08-25T05:18:46;5.80;;;2.77;;
69771;SDS011;57046;45.988;18.664;2022-08-25T05:21:13;7.68;;;3.47;;
69771;SDS011;57046;45.988;18.664;2022-08-25T05:23:40;9.00;;;3.28;;
69771;SDS011;57046;45.988;18.664;2022-08-25T05:26:07;7.88;;;3.08;;
69771;SDS011;57046;45.988;18.664;2022-08-25T05:28:38;8.97;;;3.33;;
69771;SDS011;57046;45.988;18.664;2022-08-25T05:31:04;8.02;;;3.35;;
69771;SDS011;57046;45.988;18.664;2022-08-25T05:33:30;9.63;;;3.10;;
69771;SDS011;57046;45.988;18.664;2022-08-25T05:35:55;8.52;;;3.35;;
69771;SDS011;57046;45.988;18.664;2022-08-25T05:38:21;7.37;;;3.07;;
69771;SDS011;57046;45.988;18.664;2022-08-25T05:40:50;6.63;;;3.40;;
69771;SDS011;57046;45.988;18.664;2022-08-25T05:43:17;7.80;;;3.03;;
69771;SDS011;57046;45.988;18.664;2022-08-25T05:45:42;10.97;;;3.43;;
69771;SDS011;57046;45.988;18.664;2022-08-25T05:48:07;7.00;;;3.07;;
69771;SDS011;57046;45.988;18.664;2022-08-25T05:50:33;6.10;;;3.13;;
69771;SDS011;57046;45.988;18.664;2022-08-25T05:52:58;9.70;;;3.80;;
69771;SDS011;57046;45.988;18.664;2022-08-25T05:55:24;7.97;;;3.25;;
69771;SDS011;57046;45.988;18.664;2022-08-25T05:57:49;6.97;;;3.40;;
69771;SDS011;57046;45.988;18.664;2022-08-25T06:00:14;9.20;;;3.50;;
69771;SDS011;57046;45.988;18.664;2022-08-25T06:02:42;7.32;;;3.42;;
69771;SDS011;57046;45.988;18.664;2022-08-25T06:05:12;7.68;;;3.28;;
69771;SDS011;57046;45.988;18.664;2022-08-25T06:07:39;8.57;;;3.25;;
69771;SDS011;57046;45.988;18.664;2022-08-25T06:10:05;5.50;;;3.00;;
69771;SDS011;57046;45.988;18.664;2022-08-25T06:12:32;6.82;;;3.38;;
69771;SDS011;57046;45.988;18.664;2022-08-25T06:14:58;6.60;;;2.88;;
69771;SDS011;57046;45.988;18.664;2022-08-25T06:17:23;7.13;;;3.87;;
69771;SDS011;57046;45.988;18.664;2022-08-25T06:19:49;8.70;;;3.50;;
69771;SDS011;57046;45.988;18.664;2022-08-25T06:22:14;6.03;;;3.47;;
69771;SDS011;57046;45.988;18.664;2022-08-25T06:24:39;8.40;;;3.80;;
69771;SDS011;57046;45.988;18.664;2022-08-25T06:27:05;10.50;;;4.20;;
69771;SDS011;57046;45.988;18.664;2022-08-25T06:29:30;9.43;;;4.13;;
69771;SDS011;57046;45.988;18.664;2022-08-25T06:31:55;7.77;;;3.90;;
69771;SDS011;57046;45.988;18.664;2022-08-25T06:34:21;10.03;;;4.53;;
69771;SDS011;57046;45.988;18.664;2022-08-25T06:36:46;9.37;;;3.97;;
69771;SDS011;57046;45.988;18.664;2022-08-25T06:39:11;10.90;;;4.33;;
69771;SDS011;57046;45.988;18.664;2022-08-25T06:41:37;10.55;;;4.43;;
69771;SDS011;57046;45.988;18.664;2022-08-25T06:44:02;10.77;;;4.73;;
69771;SDS011;57046;45.988;18.664;2022-08-25T06:46:28;10.20;;;4.47;;
69771;SDS011;57046;45.988;18.664;2022-08-25T06:48:53;13.63;;;4.67;;
69771;SDS011;57046;45.988;18.664;2022-08-25T06:51:20;9.95;;;4.60;;
69771;SDS011;57046;45.988;18.664;2022-08-25T06:53:47;8.97;;;4.23;;
69771;SDS011;57046;45.988;18.664;2022-08-25T06:56:13;9.73;;;4.50;;
69771;SDS011;57046;45.988;18.664;2022-08-25T06:58:41;12.32;;;5.05;;
69771;SDS011;57046;45.988;18.664;2022-08-25T07:01:07;10.40;;;5.00;;
69771;SDS011;57046;45.988;18.664;2022-08-25T07:03:34;9.15;;;4.80;;
69771;SDS011;57046;45.988;18.664;2022-08-25T07:05:59;7.83;;;4.20;;
69771;SDS011;57046;45.988;18.664;2022-08-25T07:08:25;10.75;;;5.25;;
69771;SDS011;57046;45.988;18.664;2022-08-25T07:10:50;10.90;;;5.00;;
69771;SDS011;57046;45.988;18.664;2022-08-25T07:13:15;10.13;;;4.43;;
69771;SDS011;57046;45.988;18.664;2022-08-25T07:15:41;11.10;;;4.60;;
69771;SDS011;57046;45.988;18.664;2022-08-25T07:18:07;7.97;;;4.28;;
69771;SDS011;57046;45.988;18.664;2022-08-25T07:20:36;9.67;;;4.87;;
69771;SDS011;57046;45.988;18.664;2022-08-25T07:23:02;9.20;;;4.78;;
69771;SDS011;57046;45.988;18.664;2022-08-25T07:25:33;9.73;;;4.97;;
69771;SDS011;57046;45.988;18.664;2022-08-25T07:27:59;7.85;;;3.97;;
69771;SDS011;57046;45.988;18.664;2022-08-25T07:30:25;9.17;;;3.97;;
69771;SDS011;57046;45.988;18.664;2022-08-25T07:32:50;9.20;;;4.60;;
69771;SDS011;57046;45.988;18.664;2022-08-25T07:35:16;8.27;;;3.90;;
69771;SDS011;57046;45.988;18.664;2022-08-25T07:37:44;8.27;;;3.83;;
69771;SDS011;57046;45.988;18.664;2022-08-25T07:40:14;7.78;;;4.25;;
69771;SDS011;57046;45.988;18.664;2022-08-25T07:42:42;8.57;;;4.22;;
69771;SDS011;57046;45.988;18.664;2022-08-25T07:45:08;7.22;;;3.80;;
69771;SDS011;57046;45.988;18.664;2022-08-25T07:47:36;6.97;;;3.70;;
69771;SDS011;57046;45.988;18.664;2022-08-25T07:50:02;7.67;;;4.27;;
69771;SDS011;57046;45.988;18.664;2022-08-25T07:52:27;7.65;;;4.32;;
69771;SDS011;57046;45.988;18.664;2022-08-25T07:54:54;6.60;;;3.60;;
69771;SDS011;57046;45.988;18.664;2022-08-25T07:57:23;5.78;;;3.70;;
69771;SDS011;57046;45.988;18.664;2022-08-25T07:59:55;7.88;;;3.35;;
69771;SDS011;57046;45.988;18.664;2022-08-25T08:02:21;7.43;;;3.28;;
69771;SDS011;57046;45.988;18.664;2022-08-25T08:04:47;7.10;;;3.43;;
69771;SDS011;57046;45.988;18.664;2022-08-25T08:07:16;4.28;;;2.95;;
69771;SDS011;57046;45.988;18.664;2022-08-25T08:09:43;7.65;;;4.10;;
69771;SDS011;57046;45.988;18.664;2022-08-25T08:12:08;7.03;;;4.13;;
69771;SDS011;57046;45.988;18.664;2022-08-25T08:14:33;7.13;;;3.43;;
69771;SDS011;57046;45.988;18.664;2022-08-25T08:16:59;5.63;;;3.20;;
69771;SDS011;57046;45.988;18.664;2022-08-25T08:19:28;5.32;;;2.97;;
69771;SDS011;57046;45.988;18.664;2022-08-25T08:21:53;4.90;;;2.93;;
69771;SDS011;57046;45.988;18.664;2022-08-25T08:24:19;6.07;;;3.40;;
69771;SDS011;57046;45.988;18.664;2022-08-25T08:26:44;5.25;;;3.40;;
69771;SDS011;57046;45.988;18.664;2022-08-25T08:29:09;4.27;;;2.73;;
69771;SDS011;57046;45.988;18.664;2022-08-25T08:31:35;4.40;;;3.23;;
69771;SDS011;57046;45.988;18.664;2022-08-25T08:34:00;4.03;;;2.80;;
69771;SDS011;57046;45.988;18.664;2022-08-25T08:36:25;6.07;;;3.03;;
69771;SDS011;57046;45.988;18.664;2022-08-25T08:38:51;3.93;;;2.47;;
69771;SDS011;57046;45.988;18.664;2022-08-25T08:41:30;4.47;;;2.80;;
69771;SDS011;57046;45.988;18.664;2022-08-25T08:50:10;4.32;;;2.30;;
69771;SDS011;57046;45.988;18.664;2022-08-25T08:55:57;3.67;;;2.37;;
69771;SDS011;57046;45.988;18.664;2022-08-25T09:01:12;3.65;;;2.20;;
69771;SDS011;57046;45.988;18.664;2022-08-25T09:03:47;3.53;;;2.55;;
69771;SDS011;57046;45.988;18.664;2022-08-25T09:06:42;3.08;;;2.03;;
69771;SDS011;57046;45.988;18.664;2022-08-25T09:09:24;2.90;;;2.13;;
69771;SDS011;57046;45.988;18.664;2022-08-25T09:14:24;3.67;;;2.30;;
69771;SDS011;57046;45.988;18.664;2022-08-25T09:17:10;5.43;;;2.72;;
69771;SDS011;57046;45.988;18.664;2022-08-25T09:31:14;3.90;;;2.17;;
69771;SDS011;57046;45.988;18.664;2022-08-25T09:33:43;4.38;;;2.50;;
69771;SDS011;57046;45.988;18.664;2022-08-25T09:36:08;3.23;;;2.37;;
69771;SDS011;57046;45.988;18.664;2022-08-25T09:38:34;5.00;;;2.78;;
69771;SDS011;57046;45.988;18.664;2022-08-25T09:41:00;3.30;;;1.77;;
69771;SDS011;57046;45.988;18.664;2022-08-25T09:43:42;2.55;;;1.90;;
69771;SDS011;57046;45.988;18.664;2022-08-25T09:46:18;3.58;;;1.92;;
69771;SDS011;57046;45.988;18.664;2022-08-25T09:48:50;5.10;;;2.33;;
69771;SDS011;57046;45.988;18.664;2022-08-25T09:51:19;2.53;;;1.87;;
69771;SDS011;57046;45.988;18.664;2022-08-25T10:01:48;2.77;;;1.90;;
69771;SDS011;57046;45.988;18.664;2022-08-25T10:04:39;3.20;;;2.33;;
69771;SDS011;57046;45.988;18.664;2022-08-25T10:07:22;4.05;;;2.30;;
69771;SDS011;57046;45.988;18.664;2022-08-25T10:09:58;2.42;;;1.90;;
69771;SDS011;57046;45.988;18.664;2022-08-25T10:12:29;2.90;;;1.90;;
69771;SDS011;57046;45.988;18.664;2022-08-25T10:14:55;2.83;;;2.00;;
69771;SDS011;57046;45.988;18.664;2022-08-25T10:22:33;3.75;;;2.47;;
69771;SDS011;57046;45.988;18.664;2022-08-25T10:24:59;2.97;;;2.00;;
69771;SDS011;57046;45.988;18.664;2022-08-25T10:27:30;2.23;;;1.80;;
69771;SDS011;57046;45.988;18.664;2022-08-25T10:30:28;2.88;;;2.20;;
69771;SDS011;57046;45.988;18.664;2022-08-25T10:36:09;2.72;;;2.10;;
69771;SDS011;57046;45.988;18.664;2022-08-25T10:38:42;2.05;;;1.65;;
69771;SDS011;57046;45.988;18.664;2022-08-25T10:46:49;2.05;;;1.63;;
69771;SDS011;57046;45.988;18.664;2022-08-25T10:49:24;2.45;;;1.65;;
69771;SDS011;57046;45.988;18.664;2022-08-25T10:52:01;1.80;;;1.60;;
69771;SDS011;57046;45.988;18.664;2022-08-25T11:00:07;2.95;;;1.98;;
69771;SDS011;57046;45.988;18.664;2022-08-25T11:05:24;3.33;;;1.90;;
69771;SDS011;57046;45.988;18.664;2022-08-25T11:08:30;2.83;;;1.98;;
69771;SDS011;57046;45.988;18.664;2022-08-25T11:11:08;1.85;;;1.65;;
69771;SDS011;57046;45.988;18.664;2022-08-25T11:13:43;2.20;;;1.75;;
69771;SDS011;57046;45.988;18.664;2022-08-25T11:16:14;2.67;;;1.80;;
69771;SDS011;57046;45.988;18.664;2022-08-25T11:18:55;2.17;;;1.50;;
69771;SDS011;57046;45.988;18.664;2022-08-25T11:24:10;2.55;;;1.83;;
69771;SDS011;57046;45.988;18.664;2022-08-25T11:26:38;2.67;;;1.60;;
69771;SDS011;57046;45.988;18.664;2022-08-25T11:31:50;3.03;;;1.50;;
69771;SDS011;57046;45.988;18.664;2022-08-25T11:34:17;2.13;;;1.60;;
69771;SDS011;57046;45.988;18.664;2022-08-25T11:36:54;2.83;;;1.70;;
69771;SDS011;57046;45.988;18.664;2022-08-25T11:55:12;2.27;;;1.50;;
69771;SDS011;57046;45.988;18.664;2022-08-25T11:57:41;1.83;;;1.50;;
69771;SDS011;57046;45.988;18.664;2022-08-25T12:02:57;3.58;;;1.30;;
69771;SDS011;57046;45.988;18.664;2022-08-25T12:08:08;1.60;;;1.50;;
69771;SDS011;57046;45.988;18.664;2022-08-25T12:13:38;2.27;;;1.70;;
69771;SDS011;57046;45.988;18.664;2022-08-25T12:16:04;1.98;;;1.48;;
69771;SDS011;57046;45.988;18.664;2022-08-25T12:26:39;2.15;;;1.63;;
69771;SDS011;57046;45.988;18.664;2022-08-25T12:29:19;2.15;;;1.73;;
69771;SDS011;57046;45.988;18.664;2022-08-25T12:32:09;2.38;;;1.73;;
69771;SDS011;57046;45.988;18.664;2022-08-25T12:39:53;2.87;;;1.60;;
69771;SDS011;57046;45.988;18.664;2022-08-25T12:45:11;2.17;;;1.58;;
69771;SDS011;57046;45.988;18.664;2022-08-25T12:47:37;1.88;;;1.65;;
69771;SDS011;57046;45.988;18.664;2022-08-25T12:52:49;2.10;;;1.52;;
69771;SDS011;57046;45.988;18.664;2022-08-25T12:55:16;2.38;;;1.80;;
69771;SDS011;57046;45.988;18.664;2022-08-25T12:57:45;2.05;;;1.30;;
69771;SDS011;57046;45.988;18.664;2022-08-25T13:00:26;1.52;;;1.35;;
69771;SDS011;57046;45.988;18.664;2022-08-25T13:13:59;1.53;;;1.20;;
69771;SDS011;57046;45.988;18.664;2022-08-25T13:16:50;2.03;;;1.27;;
69771;SDS011;57046;45.988;18.664;2022-08-25T13:19:18;2.88;;;1.30;;
69771;SDS011;57046;45.988;18.664;2022-08-25T13:21:44;1.35;;;1.05;;
69771;SDS011;57046;45.988;18.664;2022-08-25T13:24:29;1.75;;;1.52;;
69771;SDS011;57046;45.988;18.664;2022-08-25T13:26:59;2.38;;;1.38;;
69771;SDS011;57046;45.988;18.664;2022-08-25T13:29:29;2.38;;;0.98;;
69771;SDS011;57046;45.988;18.664;2022-08-25T13:34:33;1.37;;;1.20;;
69771;SDS011;57046;45.988;18.664;2022-08-25T13:37:04;1.70;;;0.98;;
69771;SDS011;57046;45.988;18.664;2022-08-25T13:39:31;2.05;;;1.33;;
69771;SDS011;57046;45.988;18.664;2022-08-25T13:41:57;1.63;;;1.35;;
69771;SDS011;57046;45.988;18.664;2022-08-25T13:44:24;1.85;;;1.23;;
69771;SDS011;57046;45.988;18.664;2022-08-25T13:49:36;1.58;;;1.20;;
69771;SDS011;57046;45.988;18.664;2022-08-25T13:52:03;1.27;;;0.90;;
69771;SDS011;57046;45.988;18.664;2022-08-25T13:54:34;1.50;;;1.27;;
69771;SDS011;57046;45.988;18.664;2022-08-25T13:57:21;1.60;;;1.25;;
69771;SDS011;57046;45.988;18.664;2022-08-25T13:59:50;0.90;;;0.73;;
69771;SDS011;57046;45.988;18.664;2022-08-25T14:05:05;1.77;;;1.40;;
69771;SDS011;57046;45.988;18.664;2022-08-25T14:07:31;1.23;;;1.13;;
69771;SDS011;57046;45.988;18.664;2022-08-25T14:15:33;1.27;;;1.17;;
69771;SDS011;57046;45.988;18.664;2022-08-25T14:18:00;1.55;;;1.33;;
69771;SDS011;57046;45.988;18.664;2022-08-25T14:20:31;1.70;;;1.58;;
69771;SDS011;57046;45.988;18.664;2022-08-25T14:23:05;1.30;;;1.20;;
69771;SDS011;57046;45.988;18.664;2022-08-25T14:25:33;1.50;;;1.23;;
69771;SDS011;57046;45.988;18.664;2022-08-25T14:28:00;1.63;;;1.00;;
69771;SDS011;57046;45.988;18.664;2022-08-25T14:30:28;1.30;;;1.20;;
69771;SDS011;57046;45.988;18.664;2022-08-25T14:32:55;1.63;;;1.53;;
69771;SDS011;57046;45.988;18.664;2022-08-25T14:35:20;1.33;;;1.23;;
69771;SDS011;57046;45.988;18.664;2022-08-25T14:37:46;3.87;;;1.60;;
69771;SDS011;57046;45.988;18.664;2022-08-25T14:40:12;1.17;;;1.07;;
69771;SDS011;57046;45.988;18.664;2022-08-25T14:42:37;2.13;;;1.55;;
69771;SDS011;57046;45.988;18.664;2022-08-25T14:45:03;1.73;;;1.57;;
69771;SDS011;57046;45.988;18.664;2022-08-25T14:47:29;2.22;;;1.50;;
69771;SDS011;57046;45.988;18.664;2022-08-25T14:49:54;1.57;;;1.47;;
69771;SDS011;57046;45.988;18.664;2022-08-25T14:52:21;1.47;;;1.37;;
69771;SDS011;57046;45.988;18.664;2022-08-25T14:54:50;1.30;;;1.13;;
69771;SDS011;57046;45.988;18.664;2022-08-25T14:57:15;1.67;;;1.57;;
69771;SDS011;57046;45.988;18.664;2022-08-25T14:59:41;1.47;;;1.37;;
69771;SDS011;57046;45.988;18.664;2022-08-25T15:02:06;1.47;;;1.37;;
69771;SDS011;57046;45.988;18.664;2022-08-25T15:04:32;1.67;;;1.57;;
69771;SDS011;57046;45.988;18.664;2022-08-25T15:06:59;2.05;;;1.20;;
69771;SDS011;57046;45.988;18.664;2022-08-25T15:09:26;1.50;;;1.27;;
69771;SDS011;57046;45.988;18.664;2022-08-25T15:11:53;1.55;;;1.30;;
69771;SDS011;57046;45.988;18.664;2022-08-25T15:14:20;1.50;;;1.40;;
69771;SDS011;57046;45.988;18.664;2022-08-25T15:16:49;3.53;;;1.63;;
69771;SDS011;57046;45.988;18.664;2022-08-25T15:19:20;1.42;;;1.33;;
69771;SDS011;57046;45.988;18.664;2022-08-25T15:21:47;2.38;;;1.52;;
69771;SDS011;57046;45.988;18.664;2022-08-25T15:24:13;2.13;;;1.70;;
69771;SDS011;57046;45.988;18.664;2022-08-25T15:26:43;1.50;;;1.40;;
69771;SDS011;57046;45.988;18.664;2022-08-25T15:29:12;2.75;;;1.50;;
69771;SDS011;57046;45.988;18.664;2022-08-25T15:31:37;1.67;;;1.57;;
69771;SDS011;57046;45.988;18.664;2022-08-25T15:34:03;1.98;;;1.55;;
69771;SDS011;57046;45.988;18.664;2022-08-25T15:36:28;1.43;;;1.33;;
69771;SDS011;57046;45.988;18.664;2022-08-25T15:38:54;2.53;;;1.30;;
69771;SDS011;57046;45.988;18.664;2022-08-25T15:41:19;1.40;;;1.30;;
69771;SDS011;57046;45.988;18.664;2022-08-25T15:43:44;1.30;;;1.20;;
69771;SDS011;57046;45.988;18.664;2022-08-25T15:46:10;1.30;;;1.07;;
69771;SDS011;57046;45.988;18.664;2022-08-25T15:48:39;2.95;;;1.50;;
69771;SDS011;57046;45.988;18.664;2022-08-25T15:51:05;2.83;;;1.10;;
69771;SDS011;57046;45.988;18.664;2022-08-25T15:53:30;1.23;;;1.10;;
69771;SDS011;57046;45.988;18.664;2022-08-25T15:55:55;1.40;;;1.30;;
69771;SDS011;57046;45.988;18.664;2022-08-25T15:58:21;1.67;;;1.20;;
69771;SDS011;57046;45.988;18.664;2022-08-25T16:00:47;1.00;;;0.90;;
69771;SDS011;57046;45.988;18.664;2022-08-25T16:03:12;1.38;;;1.27;;
69771;SDS011;57046;45.988;18.664;2022-08-25T16:05:38;1.63;;;1.40;;
69771;SDS011;57046;45.988;18.664;2022-08-25T16:08:05;1.40;;;1.27;;
69771;SDS011;57046;45.988;18.664;2022-08-25T16:10:37;1.50;;;1.40;;
69771;SDS011;57046;45.988;18.664;2022-08-25T16:13:04;2.33;;;1.60;;
69771;SDS011;57046;45.988;18.664;2022-08-25T16:15:30;1.85;;;1.10;;
69771;SDS011;57046;45.988;18.664;2022-08-25T16:17:59;1.37;;;1.27;;
69771;SDS011;57046;45.988;18.664;2022-08-25T16:20:26;1.92;;;1.25;;
69771;SDS011;57046;45.988;18.664;2022-08-25T16:22:53;1.83;;;1.20;;
69771;SDS011;57046;45.988;18.664;2022-08-25T16:25:18;2.13;;;1.23;;
69771;SDS011;57046;45.988;18.664;2022-08-25T16:27:44;1.88;;;1.25;;
69771;SDS011;57046;45.988;18.664;2022-08-25T16:30:10;2.17;;;1.40;;
69771;SDS011;57046;45.988;18.664;2022-08-25T16:32:36;1.13;;;1.02;;
69771;SDS011;57046;45.988;18.664;2022-08-25T16:35:04;1.83;;;1.63;;
69771;SDS011;57046;45.988;18.664;2022-08-25T16:37:31;2.05;;;1.50;;
69771;SDS011;57046;45.988;18.664;2022-08-25T16:39:57;1.20;;;1.10;;
69771;SDS011;57046;45.988;18.664;2022-08-25T16:42:22;1.47;;;1.00;;
69771;SDS011;57046;45.988;18.664;2022-08-25T16:44:48;1.67;;;1.10;;
69771;SDS011;57046;45.988;18.664;2022-08-25T16:47:13;1.50;;;1.00;;
69771;SDS011;57046;45.988;18.664;2022-08-25T16:49:39;1.57;;;1.47;;
69771;SDS011;57046;45.988;18.664;2022-08-25T16:52:05;1.40;;;1.27;;
69771;SDS011;57046;45.988;18.664;2022-08-25T16:54:32;2.05;;;1.38;;